Terminal Aerodrome Forecast
Issued by NWS Missoula, MT

Home | Current Version | Previous Version | Text Only | Print | Product List | Glossary On
Versions: 1 2 3 4 5 6 7 8 9 10 11 12 13 14
000
FTUS45 KMSO 242320
TAFGPI
TAF
KGPI 242320Z 2500/2524 13004KT P6SM SKC
     FM250300 VRB05KT P6SM -RA FEW020 SCT030 OVC050
     FM251000 03003KT P6SM SKC
     FM252100 16008KT P6SM FEW150=

USA.gov is the U.S. government's official web portal to all federal, state and local government web resources and services.